createdAt,value
2023-04-01T00:01:36.193Z,99057.09
2023-04-01T00:04:04.538Z,99074.72
2023-04-01T00:06:32.881Z,99054.19
2023-04-01T00:09:00.935Z,99052.22
2023-04-01T00:11:30.539Z,99058.78
2023-04-01T00:13:59.931Z,99050.59
2023-04-01T00:16:28.205Z,99046.47
2023-04-01T00:18:56.221Z,99033.88
2023-04-01T00:21:24.618Z,99049.06
2023-04-01T00:23:53.208Z,99055.22
2023-04-01T00:26:22.856Z,99049.75
2023-04-01T00:28:51.956Z,99046.56
2023-04-01T00:31:21.882Z,99047.91
2023-04-01T00:33:50.448Z,99064.16
2023-04-01T00:36:20.362Z,99043.91
2023-04-01T00:38:48.416Z,99053.00
2023-04-01T00:41:17.903Z,99046.06
2023-04-01T00:43:47.845Z,99053.41
2023-04-01T00:46:16.392Z,99054.41
2023-04-01T00:48:47.592Z,99043.13
2023-04-01T00:51:18.273Z,99047.53
2023-04-01T00:53:48.955Z,99054.25
2023-04-01T00:56:19.659Z,99060.75
2023-04-01T00:58:50.906Z,99048.88
2023-04-01T01:01:19.655Z,99053.00
2023-04-01T01:03:49.120Z,99040.28
2023-04-01T01:06:28.635Z,99047.72
2023-04-01T01:09:16.537Z,99040.66
2023-04-01T01:11:50.263Z,99039.72
2023-04-01T01:14:29.525Z,99030.81
2023-04-01T01:17:03.330Z,99035.88
2023-04-01T01:19:51.105Z,99040.13
2023-04-01T01:22:36.250Z,99035.63
2023-04-01T01:25:16.960Z,99029.53
2023-04-01T01:27:51.499Z,99034.56
2023-04-01T01:30:34.082Z,99031.22
2023-04-01T01:33:27.804Z,99028.81
2023-04-01T01:36:00.046Z,99031.78
2023-04-01T01:38:29.889Z,99028.41
2023-04-01T01:41:03.859Z,99023.31
2023-04-01T01:43:34.265Z,99031.34
2023-04-01T01:46:05.575Z,99014.38
2023-04-01T01:48:36.583Z,99015.06
2023-04-01T01:51:07.371Z,99008.03
2023-04-01T01:53:35.641Z,99023.38
2023-04-01T01:56:04.991Z,99020.69
2023-04-01T01:58:42.226Z,99010.69
2023-04-01T02:01:15.508Z,99010.97
2023-04-01T02:03:44.783Z,99017.97
2023-04-01T02:06:17.670Z,99011.47
2023-04-01T02:08:47.905Z,99024.22
2023-04-01T02:11:19.977Z,99008.19
2023-04-01T02:13:54.468Z,99005.59
2023-04-01T02:16:25.587Z,99010.91
2023-04-01T02:18:57.673Z,99005.41
2023-04-01T02:21:30.527Z,99009.06
2023-04-01T02:24:01.034Z,99013.41
2023-04-01T02:26:29.257Z,99004.41
2023-04-01T02:28:58.503Z,99004.25
2023-04-01T02:31:28.828Z,99021.63
2023-04-01T02:33:57.189Z,99011.50
2023-04-01T02:36:26.933Z,99009.81
2023-04-01T02:38:56.586Z,99002.91
2023-04-01T02:41:24.580Z,99006.88
2023-04-01T02:43:52.873Z,99017.22
2023-04-01T02:46:21.013Z,99025.47
2023-04-01T02:48:49.218Z,99015.53
2023-04-01T02:51:18.382Z,99017.00
2023-04-01T02:53:48.280Z,99032.09
2023-04-01T02:56:16.334Z,99022.63
2023-04-01T02:58:44.578Z,99024.28
2023-04-01T03:01:12.718Z,99014.16
2023-04-01T03:03:41.093Z,99013.16
2023-04-01T03:06:10.436Z,99022.16
2023-04-01T03:08:38.706Z,99020.13
2023-04-01T03:11:08.656Z,99019.59
2023-04-01T03:13:38.402Z,99022.06
2023-04-01T03:16:07.097Z,99017.84
2023-04-01T03:18:37.112Z,99022.47
2023-04-01T03:21:16.260Z,99015.66
2023-04-01T03:23:44.676Z,99024.75
2023-04-01T03:26:14.474Z,99034.34
2023-04-01T03:28:43.302Z,99032.91
2023-04-01T03:31:11.839Z,99017.53
2023-04-01T03:33:46.571Z,99021.41
2023-04-01T03:36:15.215Z,99038.19
2023-04-01T03:38:44.397Z,99026.34
2023-04-01T03:41:16.394Z,99027.72
2023-04-01T03:43:45.889Z,99016.84
2023-04-01T03:46:19.279Z,99021.16
2023-04-01T03:48:48.598Z,99019.47
2023-04-01T03:51:16.637Z,99022.91
2023-04-01T03:53:45.662Z,99021.09
2023-04-01T03:56:15.130Z,99030.75
2023-04-01T03:58:43.399Z,99021.50
2023-04-01T04:01:16.643Z,99035.25
2023-04-01T04:03:46.669Z,99050.81
2023-04-01T04:06:15.746Z,99030.38
2023-04-01T04:08:45.154Z,99019.84
2023-04-01T04:11:14.897Z,99029.88
2023-04-01T04:13:45.478Z,99012.78
2023-04-01T04:16:13.709Z,99021.06
2023-04-01T04:18:46.927Z,99022.16
2023-04-01T04:21:15.783Z,99019.78
2023-04-01T04:23:45.030Z,99020.03
2023-04-01T04:26:17.519Z,99043.81
2023-04-01T04:28:51.488Z,99033.47
2023-04-01T04:31:21.556Z,99012.03
2023-04-01T04:33:52.300Z,99022.88
2023-04-01T04:36:20.886Z,99025.88
2023-04-01T04:38:51.259Z,99025.09
2023-04-01T04:41:22.588Z,99017.66
2023-04-01T04:43:53.350Z,99009.09
2023-04-01T04:46:21.868Z,99013.81
2023-04-01T04:48:54.022Z,99041.34
2023-04-01T04:51:23.036Z,99018.06
2023-04-01T04:53:52.998Z,99003.16
2023-04-01T04:56:26.258Z,99014.84
2023-04-01T04:59:08.931Z,99012.53
2023-04-01T05:01:49.864Z,99013.56
2023-04-01T05:04:18.268Z,99023.66
2023-04-01T05:06:46.595Z,99009.31
2023-04-01T05:09:15.846Z,99008.66
2023-04-01T05:11:45.738Z,99017.97
2023-04-01T05:14:15.585Z,99016.72
2023-04-01T05:16:46.026Z,99012.72
2023-04-01T05:19:14.320Z,99023.28
2023-04-01T05:21:42.325Z,99017.53
2023-04-01T05:24:11.234Z,98994.28
2023-04-01T05:26:39.696Z,99017.53
2023-04-01T05:29:09.343Z,99012.00
2023-04-01T05:31:37.436Z,99006.66
2023-04-01T05:34:06.957Z,99006.41
2023-04-01T05:36:36.602Z,99010.59
2023-04-01T05:39:05.278Z,99017.47
2023-04-01T05:41:33.336Z,99012.66
2023-04-01T05:44:01.597Z,99004.75
2023-04-01T05:46:51.290Z,98995.75
2023-04-01T05:49:22.920Z,99014.00
2023-04-01T05:51:52.209Z,98995.66
2023-04-01T05:54:21.044Z,98997.25
2023-04-01T05:56:49.258Z,99000.44
2023-04-01T05:59:18.418Z,98995.09
2023-04-01T06:01:46.439Z,98998.69
2023-04-01T06:04:18.376Z,98996.44
2023-04-01T06:06:47.647Z,98999.66
2023-04-01T06:09:18.014Z,98995.97
2023-04-01T06:12:00.417Z,99002.31
2023-04-01T06:14:35.865Z,99001.25
2023-04-01T06:17:22.536Z,98998.56
2023-04-01T06:19:57.547Z,99007.41
2023-04-01T06:23:02.783Z,99001.50
2023-04-01T06:26:01.110Z,98996.66
2023-04-01T06:29:14.599Z,98999.59
2023-04-01T06:31:58.487Z,98999.53
2023-04-01T06:34:40.578Z,98991.50
2023-04-01T06:37:20.423Z,99022.91
2023-04-01T06:40:01.948Z,99002.66
2023-04-01T06:42:39.300Z,99000.25
2023-04-01T06:45:28.472Z,98997.84
2023-04-01T06:48:30.974Z,98998.50
2023-04-01T06:51:26.576Z,98986.78
2023-04-01T06:54:18.115Z,98992.16
2023-04-01T06:57:12.924Z,98984.25
2023-04-01T06:59:41.334Z,98990.03
2023-04-01T07:02:21.044Z,98999.53
2023-04-01T07:04:51.035Z,98999.63
2023-04-01T07:07:26.263Z,98994.44
2023-04-01T07:10:02.166Z,98997.97
2023-04-01T07:12:40.099Z,99015.38
2023-04-01T07:15:19.290Z,99009.63
2023-04-01T07:17:49.360Z,99000.13
2023-04-01T07:20:22.500Z,99002.88
2023-04-01T07:22:51.912Z,99003.44
2023-04-01T07:25:48.681Z,99006.59
2023-04-01T07:28:35.732Z,99008.91
2023-04-01T07:31:21.026Z,99001.81
2023-04-01T07:33:56.394Z,99004.44
2023-04-01T07:36:30.555Z,99005.47
2023-04-01T07:39:05.342Z,99013.66
2023-04-01T07:42:11.420Z,99004.56
2023-04-01T07:44:45.274Z,99020.97
2023-04-01T07:47:25.120Z,99006.13
2023-04-01T07:50:03.651Z,99010.97
2023-04-01T07:52:38.126Z,99018.31
2023-04-01T07:55:18.808Z,99010.84
2023-04-01T07:57:52.511Z,99016.16
2023-04-01T08:00:22.696Z,99005.06
2023-04-01T08:03:19.017Z,99008.91
2023-04-01T08:05:54.011Z,99008.03
2023-04-01T08:08:30.209Z,99008.91
2023-04-01T08:11:26.998Z,99014.91
2023-04-01T08:14:28.475Z,99007.75
2023-04-01T08:17:40.093Z,99014.34
2023-04-01T08:20:18.857Z,99008.16
2023-04-01T08:22:51.272Z,99031.38
2023-04-01T08:25:32.905Z,99046.78
2023-04-01T08:28:06.418Z,99030.09
2023-04-01T08:30:42.266Z,99024.16
2023-04-01T08:33:16.731Z,99025.13
2023-04-01T08:35:49.180Z,99020.44
2023-04-01T08:38:20.335Z,99032.72
2023-04-01T08:41:01.503Z,99030.41
2023-04-01T08:44:01.571Z,99025.03
2023-04-01T08:47:07.982Z,99049.59
2023-04-01T08:49:49.267Z,99047.44
2023-04-01T08:52:38.125Z,99021.97
2023-04-01T08:55:29.489Z,99043.13
2023-04-01T08:58:26.822Z,99025.59
2023-04-01T09:01:18.044Z,99039.94
2023-04-01T09:04:05.289Z,99046.22
2023-04-01T09:06:52.475Z,99042.50
2023-04-01T09:10:02.764Z,99047.50
2023-04-01T09:12:51.520Z,99040.44
2023-04-01T09:15:35.113Z,99041.34
2023-04-01T09:18:55.354Z,99041.78
2023-04-01T09:21:33.630Z,99053.59
2023-04-01T09:24:26.088Z,99048.84
2023-04-01T09:27:06.580Z,99047.47
2023-04-01T09:29:56.692Z,99051.44
2023-04-01T09:32:40.668Z,99047.31
2023-04-01T09:35:24.507Z,99046.22
2023-04-01T09:38:02.232Z,99059.56
2023-04-01T09:40:43.790Z,99055.78
2023-04-01T09:43:26.571Z,99049.19
2023-04-01T09:46:21.444Z,99070.63
2023-04-01T09:49:22.282Z,99062.88
2023-04-01T09:51:59.504Z,99079.34
2023-04-01T09:54:42.361Z,99066.03
2023-04-01T09:57:25.115Z,99086.75
2023-04-01T10:00:34.645Z,99071.91
2023-04-01T10:03:54.169Z,99069.31
2023-04-01T10:07:14.433Z,99068.91
2023-04-01T10:10:16.028Z,99096.28
2023-04-01T10:13:04.761Z,99065.16
2023-04-01T10:16:01.512Z,99073.88
2023-04-01T10:18:49.352Z,99075.00
2023-04-01T10:21:41.904Z,99065.00
2023-04-01T10:24:26.221Z,99079.13
2023-04-01T10:27:15.918Z,99073.66
2023-04-01T10:30:33.951Z,99068.81
2023-04-01T10:33:35.603Z,99075.38
2023-04-01T10:36:30.949Z,99077.66
2023-04-01T10:39:12.515Z,99078.53
2023-04-01T10:42:07.993Z,99077.09
2023-04-01T10:44:52.425Z,99082.72
2023-04-01T10:47:46.855Z,99068.69
2023-04-01T10:50:42.984Z,99081.84
2023-04-01T10:53:43.628Z,99071.13
2023-04-01T10:56:41.920Z,99071.75
2023-04-01T11:00:19.232Z,99066.50
2023-04-01T11:03:41.878Z,99068.59
2023-04-01T11:07:24.450Z,99068.19
2023-04-01T11:10:08.320Z,99080.41
2023-04-01T11:13:10.488Z,99076.44
2023-04-01T11:15:57.755Z,99087.06
2023-04-01T11:18:55.260Z,99080.16
2023-04-01T11:21:56.691Z,99078.78
2023-04-01T11:24:51.180Z,99098.66
2023-04-01T11:27:54.965Z,99079.59
2023-04-01T11:30:43.210Z,99090.16
2023-04-01T11:33:20.101Z,99090.84
2023-04-01T11:36:11.278Z,99106.19
2023-04-01T11:38:51.970Z,99089.06
2023-04-01T11:42:02.921Z,99089.50
2023-04-01T11:44:55.592Z,99084.13
2023-04-01T11:47:50.922Z,99111.78
2023-04-01T11:50:23.977Z,99106.56
2023-04-01T11:53:04.854Z,99096.31
2023-04-01T11:55:45.812Z,99121.19
2023-04-01T11:58:24.980Z,99102.66
2023-04-01T12:01:08.458Z,99098.56
2023-04-01T12:03:49.147Z,99114.75
2023-04-01T12:06:23.306Z,99129.09
2023-04-01T12:08:57.982Z,99127.03
2023-04-01T12:11:32.357Z,99123.63
2023-04-01T12:14:07.089Z,99137.63
2023-04-01T12:16:48.948Z,99139.19
2023-04-01T12:19:22.132Z,99108.94
2023-04-01T12:21:57.648Z,99130.63
2023-04-01T12:24:47.433Z,99117.53
2023-04-01T12:27:33.849Z,99113.47
2023-04-01T12:30:15.033Z,99130.97
2023-04-01T12:32:47.815Z,99124.03
2023-04-01T12:35:21.304Z,99120.84
2023-04-01T12:37:57.248Z,99121.72
2023-04-01T12:40:42.233Z,99129.38
2023-04-01T12:43:22.413Z,99144.56
2023-04-01T12:45:57.401Z,99134.56
2023-04-01T12:48:39.816Z,99126.25
2023-04-01T12:51:31.056Z,99141.72
2023-04-01T12:54:27.148Z,99109.41
2023-04-01T12:57:04.930Z,99143.63
2023-04-01T12:59:46.313Z,99146.31
2023-04-01T13:02:15.908Z,99124.47
2023-04-01T13:05:20.638Z,99131.88
2023-04-01T13:07:55.255Z,99160.34
2023-04-01T13:10:33.539Z,99144.41
2023-04-01T13:13:17.545Z,99141.78
2023-04-01T13:15:47.548Z,99153.13
2023-04-01T13:18:24.724Z,99159.19
2023-04-01T13:21:01.239Z,99162.47
2023-04-01T13:23:38.574Z,99151.88
2023-04-01T13:26:16.219Z,99156.59
2023-04-01T13:28:49.973Z,99152.97
2023-04-01T13:31:29.384Z,99191.81
2023-04-01T13:34:05.788Z,99154.13
2023-04-01T13:36:40.339Z,99177.47
2023-04-01T13:39:17.536Z,99179.06
2023-04-01T13:41:55.238Z,99164.16
2023-04-01T13:44:31.666Z,99163.03
2023-04-01T13:47:26.493Z,99166.22
2023-04-01T13:50:27.396Z,99170.31
2023-04-01T13:53:36.157Z,99172.41
2023-04-01T13:56:17.270Z,99186.19
2023-04-01T13:59:09.485Z,99185.63
2023-04-01T14:01:43.797Z,99175.44
2023-04-01T14:04:41.765Z,99174.38
2023-04-01T14:07:38.903Z,99180.41
2023-04-01T14:10:25.654Z,99196.56
2023-04-01T14:13:00.980Z,99181.41
2023-04-01T14:15:43.113Z,99192.75
2023-04-01T14:18:21.096Z,99196.56
2023-04-01T14:20:53.942Z,99184.22
2023-04-01T14:23:56.967Z,99183.22
2023-04-01T14:26:35.986Z,99198.72
2023-04-01T14:29:16.889Z,99197.25
2023-04-01T14:31:56.629Z,99197.97
2023-04-01T14:34:36.249Z,99212.03
2023-04-01T14:37:18.077Z,99197.91
2023-04-01T14:40:02.330Z,99186.06
2023-04-01T14:42:47.503Z,99209.91
2023-04-01T14:45:33.444Z,99195.19
2023-04-01T14:48:06.621Z,99217.00
2023-04-01T14:50:43.364Z,99212.72
2023-04-01T14:53:15.585Z,99233.50
2023-04-01T14:55:51.496Z,99217.00
2023-04-01T14:58:22.750Z,99212.50
2023-04-01T15:00:57.707Z,99202.78
2023-04-01T15:03:31.576Z,99218.66
2023-04-01T15:06:22.847Z,99220.13
2023-04-01T15:08:56.830Z,99223.91
2023-04-01T15:11:37.317Z,99218.63
2023-04-01T15:14:33.348Z,99240.34
2023-04-01T15:17:15.150Z,99237.25
2023-04-01T15:19:57.816Z,99234.78
2023-04-01T15:22:48.232Z,99230.28
2023-04-01T15:25:29.990Z,99235.09
2023-04-01T15:28:03.284Z,99261.66
2023-04-01T15:30:35.802Z,99238.25
2023-04-01T15:33:25.494Z,99236.69
2023-04-01T15:36:00.471Z,99235.72
2023-04-01T15:38:35.505Z,99239.28
2023-04-01T15:41:09.632Z,99240.84
2023-04-01T15:43:43.256Z,99242.69
2023-04-01T15:46:28.536Z,99254.13
2023-04-01T15:49:05.041Z,99247.19
2023-04-01T15:51:50.725Z,99235.19
2023-04-01T15:54:35.545Z,99256.22
2023-04-01T15:57:20.663Z,99243.00
2023-04-01T15:59:56.685Z,99246.72
2023-04-01T16:02:33.081Z,99256.00
2023-04-01T16:05:06.628Z,99258.81
2023-04-01T16:07:47.971Z,99266.91
2023-04-01T16:10:27.858Z,99257.53
2023-04-01T16:13:05.760Z,99268.19
2023-04-01T16:15:40.248Z,99254.69
2023-04-01T16:18:25.030Z,99254.16
2023-04-01T16:20:56.789Z,99262.88
2023-04-01T16:23:28.914Z,99279.03
2023-04-01T16:26:05.709Z,99266.38
2023-04-01T16:28:38.943Z,99274.25
2023-04-01T16:31:10.937Z,99297.56
2023-04-01T16:33:46.766Z,99277.13
2023-04-01T16:36:25.469Z,99281.75
2023-04-01T16:38:59.730Z,99291.00
2023-04-01T16:41:31.991Z,99292.34
2023-04-01T16:44:13.032Z,99294.63
2023-04-01T16:46:42.013Z,99288.50
2023-04-01T16:49:25.707Z,99280.72
2023-04-01T16:51:56.817Z,99293.94
2023-04-01T16:54:31.242Z,99289.88
2023-04-01T16:57:20.020Z,99298.13
2023-04-01T16:59:50.071Z,99336.91
2023-04-01T17:02:19.809Z,99305.59
2023-04-01T17:04:50.334Z,99308.56
2023-04-01T17:07:28.920Z,99314.06
2023-04-01T17:10:09.152Z,99313.03
2023-04-01T17:12:42.349Z,99328.47
2023-04-01T17:15:19.564Z,99332.97
2023-04-01T17:17:55.403Z,99327.38
2023-04-01T17:20:36.165Z,99328.94
2023-04-01T17:23:14.144Z,99322.59
2023-04-01T17:25:53.811Z,99329.91
2023-04-01T17:28:35.506Z,99336.19
2023-04-01T17:31:09.825Z,99339.09
2023-04-01T17:34:17.085Z,99347.91
2023-04-01T17:36:58.128Z,99349.72
2023-04-01T17:39:37.773Z,99346.66
2023-04-01T17:42:08.619Z,99356.72
2023-04-01T17:44:47.958Z,99356.16
2023-04-01T17:47:35.353Z,99351.97
2023-04-01T17:50:23.104Z,99362.63
2023-04-01T17:52:59.756Z,99360.50
2023-04-01T17:55:48.147Z,99367.53
2023-04-01T17:58:20.578Z,99363.34
2023-04-01T18:01:10.801Z,99369.44
2023-04-01T18:03:55.958Z,99367.69
2023-04-01T18:06:32.310Z,99376.63
2023-04-01T18:09:01.843Z,99395.78
2023-04-01T18:11:40.325Z,99392.56
2023-04-01T18:14:38.367Z,99395.69
2023-04-01T18:17:18.775Z,99398.94
2023-04-01T18:19:57.378Z,99397.91
2023-04-01T18:22:30.284Z,99396.91
2023-04-01T18:25:03.296Z,99407.50
2023-04-01T18:27:32.699Z,99417.31
2023-04-01T18:30:03.594Z,99407.00
2023-04-01T18:32:37.759Z,99414.72
2023-04-01T18:35:19.273Z,99421.94
2023-04-01T18:37:51.177Z,99433.84
2023-04-01T18:40:25.132Z,99431.00
2023-04-01T18:43:02.594Z,99439.69
2023-04-01T18:45:33.964Z,99439.69
2023-04-01T18:48:13.198Z,99437.06
2023-04-01T18:50:45.825Z,99445.59
2023-04-01T18:53:20.521Z,99455.66
2023-04-01T18:55:49.988Z,99453.78
2023-04-01T18:58:26.312Z,99456.94
2023-04-01T19:01:06.615Z,99459.06
2023-04-01T19:03:41.142Z,99465.19
2023-04-01T19:06:17.975Z,99472.84
2023-04-01T19:08:46.426Z,99473.63
2023-04-01T19:11:21.604Z,99475.53
2023-04-01T19:13:56.234Z,99477.66
2023-04-01T19:16:33.200Z,99486.97
2023-04-01T19:19:15.776Z,99470.28
2023-04-01T19:21:47.673Z,99488.31
2023-04-01T19:24:35.629Z,99484.34
2023-04-01T19:27:08.729Z,99481.44
2023-04-01T19:29:46.300Z,99490.19
2023-04-01T19:32:20.947Z,99489.38
2023-04-01T19:34:56.663Z,99488.34
2023-04-01T19:37:31.653Z,99487.28
2023-04-01T19:40:12.124Z,99494.72
2023-04-01T19:42:44.713Z,99490.47
2023-04-01T19:45:27.975Z,99488.34
2023-04-01T19:48:02.561Z,99498.41
2023-04-01T19:50:37.941Z,99502.41
2023-04-01T19:53:15.954Z,99498.91
2023-04-01T19:55:48.091Z,99505.81
2023-04-01T19:58:22.792Z,99507.91
2023-04-01T20:00:55.066Z,99501.03
2023-04-01T20:03:31.501Z,99508.97
2023-04-01T20:06:09.058Z,99512.13
2023-04-01T20:08:42.874Z,99514.25
2023-04-01T20:11:24.154Z,99514.78
2023-04-01T20:14:01.224Z,99522.44
2023-04-01T20:16:48.647Z,99523.25
2023-04-01T20:19:26.591Z,99529.63
2023-04-01T20:21:58.937Z,99532.00
2023-04-01T20:24:30.797Z,99528.28
2023-04-01T20:27:05.373Z,99534.38
2023-04-01T20:29:44.277Z,99532.53
2023-04-01T20:32:23.639Z,99532.78
2023-04-01T20:35:01.906Z,99542.31
2023-04-01T20:37:39.988Z,99542.84
2023-04-01T20:40:34.751Z,99543.38
2023-04-01T20:43:26.618Z,99553.97
2023-04-01T20:45:59.137Z,99551.31
2023-04-01T20:48:40.816Z,99550.28
2023-04-01T20:51:11.061Z,99557.16
2023-04-01T20:53:45.112Z,99558.19
2023-04-01T20:56:23.650Z,99562.69
2023-04-01T20:58:59.624Z,99564.03
2023-04-01T21:01:37.241Z,99566.16
2023-04-01T21:04:19.479Z,99561.63
2023-04-01T21:07:00.989Z,99564.81
2023-04-01T21:09:43.862Z,99571.97
2023-04-01T21:12:20.265Z,99565.13
2023-04-01T21:15:24.054Z,99574.88
2023-04-01T21:18:00.523Z,99579.38
2023-04-01T21:20:44.916Z,99587.84
2023-04-01T21:23:33.698Z,99579.38
2023-04-01T21:26:12.771Z,99586.78
2023-04-01T21:28:49.045Z,99586.28
2023-04-01T21:31:36.227Z,99595.31
2023-04-01T21:34:34.963Z,99596.91
2023-04-01T21:37:22.159Z,99609.59
2023-04-01T21:40:02.704Z,99603.72
2023-04-01T21:42:41.900Z,99611.69
2023-04-01T21:45:21.456Z,99620.66
2023-04-01T21:48:09.224Z,99620.09
2023-04-01T21:50:50.187Z,99614.81
2023-04-01T21:53:48.783Z,99619.56
2023-04-01T21:56:44.572Z,99622.75
2023-04-01T21:59:43.994Z,99628.06
2023-04-01T22:02:38.522Z,99629.34
2023-04-01T22:05:09.520Z,99619.06
2023-04-01T22:07:40.369Z,99631.75
2023-04-01T22:10:16.429Z,99627.25
2023-04-01T22:12:49.562Z,99631.75
2023-04-01T22:15:26.271Z,99628.06
2023-04-01T22:17:56.579Z,99625.41
2023-04-01T22:20:32.163Z,99630.69
2023-04-01T22:23:12.387Z,99639.16
2023-04-01T22:25:44.534Z,99639.16
2023-04-01T22:28:15.414Z,99643.13
2023-04-01T22:30:48.558Z,99644.47
2023-04-01T22:33:19.236Z,99636.78
2023-04-01T22:35:52.223Z,99646.56
2023-04-01T22:38:33.183Z,99643.69
2023-04-01T22:41:07.187Z,99649.50
2023-04-01T22:43:39.312Z,99643.44
2023-04-01T22:46:28.847Z,99656.16
2023-04-01T22:49:02.643Z,99650.13
2023-04-01T22:51:42.330Z,99656.75
2023-04-01T22:54:17.058Z,99661.47
2023-04-01T22:56:48.483Z,99663.63
2023-04-01T22:59:19.863Z,99659.31
2023-04-01T23:01:54.029Z,99664.59
2023-04-01T23:04:26.075Z,99666.19
2023-04-01T23:06:57.313Z,99659.81
2023-04-01T23:09:26.254Z,99670.38
2023-04-01T23:11:57.158Z,99673.56
2023-04-01T23:14:47.368Z,99680.69
2023-04-01T23:17:42.651Z,99682.78
2023-04-01T23:20:31.120Z,99684.91
2023-04-01T23:23:09.179Z,99696.00
2023-04-01T23:25:45.621Z,99707.41
2023-04-01T23:28:27.710Z,99705.25
2023-04-01T23:30:55.774Z,99702.09
2023-04-01T23:33:29.307Z,99704.78
2023-04-01T23:36:05.914Z,99709.00
2023-04-01T23:38:36.510Z,99709.03
2023-04-01T23:41:05.327Z,99714.31
2023-04-01T23:43:37.874Z,99721.72
2023-04-01T23:46:08.188Z,99730.78
2023-04-01T23:48:40.373Z,99715.41
2023-04-01T23:51:15.399Z,99727.91
2023-04-01T23:53:46.353Z,99725.00
2023-04-01T23:56:14.920Z,99730.28
2023-04-01T23:58:47.187Z,99738.72
